FW0615 Weather Reports


Display with metric or nautical units.
time (UTC)temp
F
wind
direction
speed
MPH
gust
MPH
rain 1hr
in
rain 24hr
in
rain mn
in
humidity
%
barometer
mb
20210922153524 60 0.0 0.0 0.01 0.92 0.80 99 1014.0
20210922152522 60 26 0.0 2.0 0.01 0.92 0.80 98 1014.2
20210922151522 60 7 1.0 3.0 0.00 0.91 0.79 99 1013.7
20210922150531 60 213 1.0 2.0 0.00 0.91 0.79 99 1013.3
20210922145530 60 96 0.0 2.0 0.00 0.91 0.79 99 1012.9
20210922144529 60 0.0 0.0 0.00 0.91 0.79 99 1013.0
20210922143529 60 0.0 1.0 0.00 0.91 0.79 99 1012.9
20210922142521 60 129 1.0 1.0 0.01 0.91 0.79 99 1013.6
20210922141524 60 0.0 0.0 0.01 0.91 0.79 99 1013.8
20210922140528 60 0.0 0.0 0.01 0.91 0.79 99 1013.6
20210922135528 59 89 1.0 4.0 0.01 0.91 0.79 97 1012.8
20210922134528 59 82 1.0 2.0 0.01 0.91 0.79 97 1013.0
20210922133529 59 25 1.0 2.0 0.01 0.91 0.79 97 1013.1
20210922132529 59 70 1.0 3.0 0.02 0.90 0.78 97 1012.9
20210922131520 59 39 1.0 2.0 0.02 0.90 0.78 97 1012.3
20210922130521 59 42 3.0 4.0 0.04 0.90 0.78 97 1012.6
20210922125526 59 44 2.0 3.0 0.04 0.90 0.78 98 1013.0
20210922124527 59 47 2.0 2.0 0.06 0.90 0.78 99 1013.7
20210922123525 59 0.0 0.0 0.07 0.90 0.78 99 1014.3
20210922122530 59 327 1.0 3.0 0.08 0.88 0.76 99 1014.4
20210922121529 59 10 1.0 1.0 0.09 0.88 0.76 99 1014.7
20210922120521 59 349 2.0 2.0 0.09 0.86 0.74 99 1014.8
20210922115526 59 0.0 0.0 0.10 0.86 0.74 97 1015.7
20210922114523 59 0.0 0.0 0.08 0.84 0.72 97 1014.7
20210922113524 59 27 2.0 3.0 0.07 0.83 0.71 97 1013.8
20210922112526 59 9 2.0 3.0 0.04 0.80 0.68 97 1013.6
20210922111529 59 309 1.0 3.0 0.03 0.79 0.67 97 1014.0
20210922110530 59 344 3.0 4.0 0.02 0.77 0.65 97 1013.6
20210922105523 59 322 2.0 4.0 0.02 0.76 0.64 97 1013.5
20210922104524 59 11 3.0 4.0 0.05 0.76 0.64 97 1012.9
20210922103523 59 359 4.0 9.0 0.06 0.76 0.64 97 1012.8
20210922102525 60 6 5.0 7.0 0.09 0.76 0.64 98 1012.5
20210922101529 60 17 2.0 3.0 0.14 0.76 0.64 99 1013.5
20210922100529 60 358 2.0 3.0 0.13 0.75 0.63 99 1013.7
20210922095526 60 333 3.0 4.0 0.13 0.74 0.62 99 1014.2
20210922094527 60 333 2.0 4.0 0.10 0.71 0.59 99 1014.2
20210922093523 60 321 2.0 3.0 0.09 0.70 0.58 99 1014.5
20210922092534 60 1 3.0 4.0 0.06 0.67 0.55 97 1013.6
20210922091529 60 334 3.0 8.0 0.02 0.62 0.50 97 1013.9
20210922090526 60 11 4.0 7.0 0.04 0.62 0.50 99 1013.6
20210922085529 60 353 4.0 6.0 0.05 0.61 0.49 99 1013.9
20210922084529 61 329 4.0 7.0 0.05 0.61 0.49 96 1014.1
20210922083520 61 335 4.0 8.0 0.07 0.61 0.49 96 1014.1
20210922082522 61 345 5.0 9.0 0.07 0.61 0.49 98 1013.6
20210922081525 62 343 4.0 7.0 0.06 0.60 0.48 98 1013.7
20210922080529 62 329 1.0 4.0 0.04 0.58 0.46 97 1014.0
20210922075529 62 340 4.0 6.0 0.02 0.56 0.44 97 1013.5
20210922074528 62 344 4.0 7.0 0.02 0.56 0.44 97 1013.4
20210922073530 63 334 3.0 8.0 0.00 0.54 0.42 96 1013.3
20210922072525 63 296 3.0 6.0 0.00 0.54 0.42 96 1013.2
20210922071522 64 341 3.0 5.0 0.00 0.54 0.42 95 1012.9
20210922070526 64 355 3.0 5.0 0.00 0.54 0.42 96 1012.8
20210922065529 64 353 2.0 5.0 0.00 0.54 0.42 95 1012.8
20210922064528 65 353 3.0 4.0 0.01 0.54 0.42 95 1012.8
20210922063531 65 345 4.0 7.0 0.01 0.54 0.42 94 1012.7
20210922062532 67 14 4.0 8.0 0.02 0.54 0.42 93 1012.7
20210922061521 70 318 4.0 9.0 0.05 0.54 0.42 99 1012.5
20210922060522 70 0.0 0.0 0.14 0.54 0.42 99 1012.5
20210922055523 70 0.0 0.0 0.25 0.54 0.42 99 1012.6
20210922054526 70 0.0 0.0 0.34 0.53 0.41 99 1012.6
20210922053529 70 0.0 0.0 0.37 0.53 0.41 99 1012.9
20210922052528 70 0.0 0.0 0.38 0.52 0.40 99 1013.0
20210922051524 70 29 1.0 2.0 0.36 0.49 0.37 99 1013.3
20210922050522 70 0.0 0.0 0.28 0.40 0.28 99 1013.9
20210922045522 70 0.0 0.0 0.17 0.29 0.17 99 1014.1
20210922044527 70 0.0 0.0 0.08 0.19 0.07 97 1014.1
20210922043529 70 0.0 0.0 0.05 0.16 0.04 97 1014.0
20210922042530 70 0.0 0.0 0.03 0.14 0.02 97 1014.2
20210922041531 70 0.0 0.0 0.04 0.13 0.01 97 1014.3
20210922040524 70 0.0 0.0 0.06 0.12 0.00 96 1014.3
20210922035521 70 0.0 0.0 0.06 0.12 0.12 96 1014.6
20210922034524 70 0.0 0.0 0.05 0.11 0.11 95 1014.6
20210922033530 70 0.0 0.0 0.05 0.11 0.11 95 1014.5
20210922032528 71 0.0 0.0 0.05 0.11 0.11 94 1014.3
20210922031530 71 32 1.0 2.0 0.03 0.09 0.09 94 1014.5
20210922030529 72 340 2.0 3.0 0.00 0.06 0.06 94 1014.6
20210922025524 72 1 1.0 3.0 0.01 0.06 0.06 97 1014.8
20210922024522 72 0.0 0.0 0.02 0.06 0.06 96 1015.0
20210922023535 72 0.0 0.0 0.04 0.06 0.06 96 1015.0
20210922022526 72 312 1.0 2.0 0.05 0.06 0.06 96 1015.1
20210922021531 73 0.0 0.0 0.06 0.06 0.06 94 1015.1
20210922020537 73 0.0 0.0 0.06 0.06 0.06 94 1015.1
20210922015530 73 107 1.0 2.0 0.05 0.05 0.05 94 1015.2
20210922014521 73 113 1.0 2.0 0.04 0.04 0.04 93 1015.2
20210922013527 73 0.0 0.0 0.02 0.02 0.02 92 1015.1
20210922012524 74 0.0 0.0 0.01 0.01 0.01 91 1015.2
20210922011530 74 0.0 0.0 0.00 0.00 0.00 90 1015.1
20210922010527 74 0.0 0.0 0.00 0.00 0.00 90 1015.1
20210922005529 74 0.0 0.0 0.00 0.00 0.00 90 1014.9
20210922004529 74 0.0 1.0 0.00 0.00 0.00 90 1014.9
20210922003529 74 0.0 0.0 0.00 0.00 0.00 89 1015.0
20210922002521 74 0.0 0.0 0.00 0.00 0.00 89 1014.9
20210922001523 74 0.0 0.0 0.00 0.00 0.00 89 1014.9
20210922000527 74 0.0 0.0 0.00 0.00 0.00 89 1015.0
20210921235531 74 0.0 0.0 0.00 0.00 0.00 89 1015.0
20210921234532 74 0.0 0.0 0.00 0.00 0.00 88 1015.0
20210921233530 75 0.0 0.0 0.00 0.00 0.00 88 1015.1
20210921232521 75 0.0 0.0 0.00 0.00 0.00 86 1015.1
20210921231524 75 0.0 0.0 0.00 0.00 0.00 86 1015.0
20210921230530 75 0.0 0.0 0.00 0.00 0.00 85 1015.0
20210921225527 75 0.0 0.0 0.00 0.00 0.00 85 1014.9
20210921224526 75 0.0 0.0 0.00 0.00 0.00 84 1014.9
20210921223529 76 0.0 0.0 0.00 0.00 0.00 84 1014.8
20210921222542 76 0.0 0.0 0.00 0.00 0.00 83 1014.7
20210921221520 76 0.0 0.0 0.00 0.00 0.00 83 1014.6
20210921220524 76 0.0 0.0 0.00 0.00 0.00 83 1014.7
20210921215526 76 0.0 0.0 0.00 0.00 0.00 83 1015.0
20210921214530 76 58 0.0 1.0 0.00 0.00 0.00 84 1015.1
20210921213527 76 0.0 0.0 0.00 0.00 0.00 84 1015.3
20210921212530 76 0.0 0.0 0.00 0.00 0.00 83 1015.4
20210921211531 76 0.0 1.0 0.00 0.00 0.00 82 1015.7
20210921210523 76 0.0 0.0 0.00 0.00 0.00 82 1015.7
20210921205525 76 140 0.0 2.0 0.00 0.00 0.00 80 1015.5
20210921204526 76 101 0.0 2.0 0.00 0.00 0.00 82 1015.4
20210921203527 76 64 1.0 2.0 0.00 0.00 0.00 81 1015.3
20210921202527 76 0.0 0.0 0.00 0.00 0.00 82 1015.3
20210921201531 76 138 0.0 2.0 0.00 0.00 0.00 82 1015.4
20210921200530 76 122 0.0 1.0 0.00 0.00 0.00 82 1015.5
20210921195523 76 97 0.0 2.0 0.00 0.00 0.00 82 1015.7
20210921194525 75 111 1.0 3.0 0.00 0.00 0.00 83 1015.7
20210921193523 75 127 2.0 4.0 0.00 0.00 0.00 82 1015.7
20210921192527 76 119 3.0 5.0 0.00 0.00 0.00 80 1015.8
20210921191530 76 118 1.0 3.0 0.00 0.00 0.00 81 1015.8
20210921190530 75 122 0.0 1.0 0.00 0.00 0.00 84 1016.1
20210921185527 75 107 1.0 2.0 0.00 0.00 0.00 83 1016.3
20210921184525 75 152 1.0 2.0 0.00 0.00 0.00 83 1016.5
20210921183529 75 114 2.0 4.0 0.00 0.00 0.00 83 1016.5
20210921182523 74 116 1.0 2.0 0.00 0.00 0.00 84 1016.8
20210921181531 75 115 1.0 3.0 0.00 0.00 0.00 85 1017.1
20210921180543 74 109 1.0 2.0 0.00 0.00 0.00 86 1017.3
20210921175530 73 93 1.0 2.0 0.00 0.00 0.00 88 1017.5
20210921174521 73 127 1.0 2.0 0.00 0.00 0.00 88 1017.7
20210921173521 72 0.0 0.0 0.00 0.00 0.00 89 1017.8
20210921172524 72 0.0 0.0 0.00 0.00 0.00 89 1017.8
20210921171531 72 295 0.0 2.0 0.00 0.01 0.00 93 1018.0
20210921170529 72 97 0.0 1.0 0.00 0.01 0.00 93 1018.2
20210921165530 72 127 1.0 2.0 0.00 0.01 0.00 93 1018.4
20210921164528 71 100 0.0 1.0 0.00 0.01 0.00 93 1018.4
20210921163520 71 0.0 0.0 0.00 0.01 0.00 93 1018.5
20210921162524 72 0.0 0.0 0.00 0.01 0.00 92 1018.6
20210921161522 72 261 1.0 2.0 0.00 0.01 0.00 92 1018.6
20210921160528 72 0.0 0.0 0.00 0.02 0.00 91 1018.5
20210921155530 72 0.0 1.0 0.00 0.02 0.00 91 1018.5
20210921154527 72 120 0.0 1.0 0.00 0.02 0.00 90 1018.4